Date,TemperatureHighF,TemperatureAvgF,TemperatureLowF,DewpointHighF,DewpointAvgF,DewpointLowF,HumidityHigh,HumidityAvg,HumidityLow,PressureMaxIn,PressureMinIn,WindSpeedMaxMPH,WindSpeedAvgMPH,GustSpeedMaxMPH,PrecipitationSumIn
2013-8-1,89.6,81.5,76.1,75.3,72.6,68.8,88,75,55,30.03,29.91,10,1,12,1.81
2013-8-2,96.8,86.1,77.2,84.1,73.0,67.9,88,67,43,30.03,29.91,11,1,12,0.04
2013-8-3,102.6,87.8,81.5,77.5,73.4,67.7,80,64,41,30.06,29.97,13,3,15,0.00
2013-8-4,107.8,87.3,77.9,83.6,72.9,-20.5,85,65,37,30.06,29.94,14,2,15,0.08
2013-8-5,97.3,85.8,76.1,86.0,73.1,-17.9,95,68,41,30.00,29.91,12,1,12,0.00
2013-8-6,130.6,85.9,-3.1,75.1,70.2,-27.4,87,63,28,29.97,29.88,9,1,10,0.00
2013-8-7,113.0,83.0,78.1,76.5,73.7,-19.1,88,75,40,29.97,29.88,7,0,7,0.75
2013-8-8,92.3,81.6,-3.1,77.9,74.3,-14.5,89,79,54,29.97,29.91,5,0,7,0.39
2013-8-9,98.1,85.3,77.9,82.0,72.9,66.8,90,69,38,30.06,29.94,9,0,12,0.00
2013-8-10,95.0,84.5,77.5,78.7,71.3,-9.0,89,67,39,30.09,30.03,7,0,8,0.00
2013-8-11,98.8,86.7,76.8,77.8,69.4,59.3,88,60,29,30.15,30.06,10,1,11,0.00
2013-8-12,97.7,85.9,77.9,78.5,72.3,66.6,87,66,38,30.09,30.00,13,1,14,0.00
2013-8-13,91.0,81.7,77.9,82.0,73.7,67.8,87,78,48,30.03,29.91,10,1,12,0.63
2013-8-14,94.6,84.6,76.8,76.4,71.2,-12.5,90,67,39,29.94,29.88,14,2,15,0.67
2013-8-15,92.8,83.6,78.8,78.5,71.2,66.3,83,67,43,29.97,29.88,12,1,12,0.43
2013-8-16,86.0,79.8,77.0,79.0,73.9,-6.5,89,82,67,30.00,29.91,11,0,11,1.69
2013-8-17,78.6,75.9,75.2,75.6,72.8,72.1,91,90,89,30.00,29.94,9,0,13,2.09
2013-8-18,75.2,75.2,75.2,72.1,72.1,72.1,90,90,90,30.00,30.00,0,0,0,0.00
2013-8-19,75.2,75.2,75.2,72.1,72.1,72.1,90,90,90,30.00,30.00,0,0,0,0.00
2013-8-20,75.2,75.2,75.2,72.1,72.1,72.1,90,90,90,30.00,30.00,0,0,0,0.00
2013-8-21,75.2,75.2,75.2,72.1,72.1,72.1,90,90,90,30.00,30.00,0,0,0,0.00
2013-8-22,75.2,75.2,75.2,72.1,72.1,72.1,90,90,90,30.00,30.00,0,0,0,0.00
2013-8-23,75.2,75.2,75.2,72.1,72.1,72.1,90,90,90,30.00,30.00,0,0,0,0.00
2013-8-24,75.2,75.2,75.2,72.1,72.1,72.1,90,90,90,30.00,30.00,0,0,0,0.00
2013-8-25,75.2,75.2,75.2,72.1,72.1,72.1,90,90,90,30.00,30.00,0,0,0,0.00
2013-8-26,75.2,75.2,75.2,72.1,72.1,72.1,90,90,90,30.00,30.00,0,0,0,0.00
2013-8-27,75.2,75.2,75.2,72.1,72.1,72.1,90,90,90,30.00,30.00,0,0,0,0.00
2013-8-28,75.2,75.2,75.2,72.1,72.1,72.1,90,90,90,30.00,30.00,0,0,0,0.00
2013-8-29,75.2,75.2,75.2,72.1,72.1,72.1,90,90,90,30.00,30.00,0,0,0,0.00
2013-8-30,75.2,75.2,75.2,72.1,72.1,72.1,90,90,90,30.00,30.00,0,0,0,0.00
2013-8-31,75.2,75.2,75.2,72.1,72.1,72.1,90,90,90,30.00,30.00,0,0,0,0.00